createdAt,value
2022-11-23T00:01:24.381Z,34.43
2022-11-23T00:03:55.326Z,38.53
2022-11-23T00:06:24.998Z,39.80
2022-11-23T00:08:53.793Z,35.80
2022-11-23T00:11:23.846Z,40.83
2022-11-23T00:13:54.030Z,31.53
2022-11-23T00:16:24.125Z,36.23
2022-11-23T00:18:54.676Z,37.60
2022-11-23T00:21:23.345Z,34.27
2022-11-23T00:23:51.884Z,31.37
2022-11-23T00:26:20.673Z,33.43
2022-11-23T00:28:49.077Z,37.37
2022-11-23T00:31:20.201Z,33.63
2022-11-23T00:33:52.370Z,33.53
2022-11-23T00:36:21.965Z,38.07
2022-11-23T00:38:50.831Z,36.83
2022-11-23T00:41:21.113Z,36.53
2022-11-23T00:43:49.640Z,38.07
2022-11-23T00:46:20.719Z,34.67
2022-11-23T00:48:50.628Z,32.53
2022-11-23T00:51:20.423Z,39.20
2022-11-23T00:53:48.786Z,38.27
2022-11-23T00:56:16.922Z,34.17
2022-11-23T00:58:49.069Z,33.77
2022-11-23T01:01:20.349Z,33.73
2022-11-23T01:03:49.849Z,35.77
2022-11-23T01:06:19.818Z,34.63
2022-11-23T01:08:51.763Z,37.17
2022-11-23T01:11:21.809Z,35.20
2022-11-23T01:13:50.479Z,36.73
2022-11-23T01:16:24.256Z,36.27
2022-11-23T01:18:54.779Z,32.97
2022-11-23T01:21:24.986Z,34.70
2022-11-23T01:23:53.180Z,36.63
2022-11-23T01:26:21.694Z,36.93
2022-11-23T01:28:50.692Z,37.90
2022-11-23T01:31:22.103Z,30.10
2022-11-23T01:33:54.091Z,38.40
2022-11-23T01:36:24.262Z,35.03
2022-11-23T01:38:53.313Z,31.23
2022-11-23T01:41:24.323Z,32.93
2022-11-23T01:43:53.118Z,33.73
2022-11-23T01:46:22.846Z,41.40
2022-11-23T01:48:55.267Z,37.20
2022-11-23T01:51:29.933Z,33.57
2022-11-23T01:54:01.563Z,33.67
2022-11-23T01:56:36.758Z,28.47
2022-11-23T01:59:09.549Z,32.80
2022-11-23T02:01:39.125Z,34.10
2022-11-23T02:04:10.683Z,32.07
2022-11-23T02:06:46.297Z,37.47
2022-11-23T02:09:15.784Z,27.53
2022-11-23T02:11:44.712Z,31.47
2022-11-23T02:14:19.077Z,34.90
2022-11-23T02:16:53.247Z,33.17
2022-11-23T02:19:33.915Z,31.57
2022-11-23T02:22:02.297Z,32.27
2022-11-23T02:24:36.195Z,33.67
2022-11-23T02:27:07.789Z,33.27
2022-11-23T02:29:36.148Z,37.47
2022-11-23T02:32:04.295Z,29.67
2022-11-23T02:34:32.447Z,32.03
2022-11-23T02:37:02.104Z,33.23
2022-11-23T02:39:35.524Z,31.30
2022-11-23T02:42:07.527Z,39.17
2022-11-23T02:44:43.088Z,29.00
2022-11-23T02:47:12.587Z,34.27
2022-11-23T02:49:42.563Z,36.90
2022-11-23T02:52:10.894Z,29.50
2022-11-23T02:54:39.071Z,31.97
2022-11-23T02:57:09.103Z,32.70
2022-11-23T02:59:37.390Z,28.50
2022-11-23T03:02:07.669Z,29.23
2022-11-23T03:04:36.943Z,30.80
2022-11-23T03:07:05.110Z,31.10
2022-11-23T03:09:34.230Z,32.60
2022-11-23T03:12:03.738Z,28.40
2022-11-23T03:14:33.277Z,31.30
2022-11-23T03:17:02.187Z,33.60
2022-11-23T03:19:35.905Z,34.77
2022-11-23T03:22:05.002Z,34.13
2022-11-23T03:24:33.188Z,26.70
2022-11-23T03:27:04.008Z,33.63
2022-11-23T03:29:33.852Z,32.30
2022-11-23T03:32:07.552Z,31.73
2022-11-23T03:34:36.286Z,30.17
2022-11-23T03:37:05.490Z,30.97
2022-11-23T03:39:34.133Z,28.97
2022-11-23T03:42:22.774Z,33.20
2022-11-23T03:44:52.991Z,28.20
2022-11-23T03:47:21.137Z,37.87
2022-11-23T03:49:49.610Z,28.97
2022-11-23T03:52:17.755Z,31.63
2022-11-23T03:54:47.047Z,33.67
2022-11-23T03:57:15.583Z,28.53
2022-11-23T03:59:43.834Z,31.17
2022-11-23T04:02:14.666Z,35.43
2022-11-23T04:04:50.518Z,29.13
2022-11-23T04:07:44.944Z,33.83
2022-11-23T04:10:13.202Z,33.43
2022-11-23T04:13:10.563Z,31.13
2022-11-23T04:15:38.741Z,30.47
2022-11-23T04:18:08.507Z,28.37
2022-11-23T04:20:37.912Z,32.17
2022-11-23T04:23:10.395Z,29.70
2022-11-23T04:25:41.188Z,32.23
2022-11-23T04:28:09.820Z,33.97
2022-11-23T04:30:38.041Z,31.30
2022-11-23T04:33:08.783Z,36.27
2022-11-23T04:35:37.845Z,29.37
2022-11-23T04:38:06.029Z,34.30
2022-11-23T04:40:34.164Z,31.77
2022-11-23T04:43:03.969Z,30.57
2022-11-23T04:45:39.597Z,31.67
2022-11-23T04:48:12.914Z,29.73
2022-11-23T04:50:44.659Z,30.33
2022-11-23T04:53:18.199Z,32.50
2022-11-23T04:55:48.494Z,33.53
2022-11-23T04:58:18.186Z,31.63
2022-11-23T05:00:49.872Z,33.17
2022-11-23T05:03:20.762Z,31.17
2022-11-23T05:05:50.131Z,33.93
2022-11-23T05:08:18.315Z,31.33
2022-11-23T05:11:22.914Z,32.47
2022-11-23T05:13:51.859Z,28.70
2022-11-23T05:16:20.055Z,28.87
2022-11-23T05:18:49.898Z,30.20
2022-11-23T05:21:18.094Z,31.23
2022-11-23T05:23:46.372Z,30.80
2022-11-23T05:26:15.219Z,33.53
2022-11-23T05:28:44.401Z,34.70
2022-11-23T05:31:15.367Z,29.27
2022-11-23T05:33:46.158Z,29.57
2022-11-23T05:36:17.627Z,30.93
2022-11-23T05:38:45.746Z,29.53
2022-11-23T05:41:22.880Z,26.27
2022-11-23T05:43:55.639Z,31.73
2022-11-23T05:46:27.719Z,33.87
2022-11-23T05:48:56.262Z,28.93
2022-11-23T05:51:27.129Z,28.90
2022-11-23T05:53:57.051Z,27.13
2022-11-23T05:56:38.789Z,29.23
2022-11-23T05:59:16.078Z,27.23
2022-11-23T06:01:48.659Z,31.13
2022-11-23T06:04:24.524Z,32.43
2022-11-23T06:06:57.278Z,29.57
2022-11-23T06:09:25.453Z,32.27
2022-11-23T06:11:55.239Z,28.57
2022-11-23T06:14:23.932Z,26.90
2022-11-23T06:16:52.618Z,30.83
2022-11-23T06:19:34.134Z,30.37
2022-11-23T06:22:04.432Z,33.70
2022-11-23T06:24:36.366Z,29.67
2022-11-23T06:27:24.480Z,24.27
2022-11-23T06:29:53.360Z,24.10
2022-11-23T06:32:23.080Z,28.20
2022-11-23T06:34:51.524Z,25.40
2022-11-23T06:37:21.510Z,27.50
2022-11-23T06:39:53.628Z,26.93
2022-11-23T06:42:39.536Z,28.57
2022-11-23T06:45:14.818Z,28.70
2022-11-23T06:47:43.793Z,28.77
2022-11-23T06:50:14.371Z,28.97
2022-11-23T06:52:46.948Z,25.87
2022-11-23T06:55:15.341Z,25.57
2022-11-23T06:57:43.473Z,32.10
2022-11-23T07:00:15.029Z,26.70
2022-11-23T07:02:44.699Z,33.93
2022-11-23T07:05:15.490Z,24.77
2022-11-23T07:07:43.792Z,23.33
2022-11-23T07:10:21.326Z,24.50
2022-11-23T07:12:53.532Z,33.37
2022-11-23T07:15:22.936Z,29.43
2022-11-23T07:17:52.956Z,26.47
2022-11-23T07:20:23.163Z,26.73
2022-11-23T07:23:00.596Z,32.53
2022-11-23T07:25:30.320Z,27.57
2022-11-23T07:27:58.833Z,26.03
2022-11-23T07:30:30.000Z,34.27
2022-11-23T07:33:01.462Z,28.07
2022-11-23T07:35:30.037Z,27.17
2022-11-23T07:37:58.926Z,32.13
2022-11-23T07:40:28.144Z,27.03
2022-11-23T07:43:02.532Z,30.33
2022-11-23T07:45:31.055Z,28.63
2022-11-23T07:48:01.870Z,32.27
2022-11-23T07:50:30.554Z,24.93
2022-11-23T07:52:59.299Z,28.10
2022-11-23T07:55:28.432Z,26.63
2022-11-23T07:57:56.655Z,25.50
2022-11-23T08:00:28.219Z,27.50
2022-11-23T08:03:26.031Z,24.67
2022-11-23T08:05:45.944Z,28.57
2022-11-23T08:08:14.070Z,27.47
2022-11-23T08:10:47.222Z,25.27
2022-11-23T08:13:18.983Z,25.63
2022-11-23T08:15:53.900Z,26.40
2022-11-23T08:18:22.958Z,21.73
2022-11-23T08:20:51.440Z,25.73
2022-11-23T08:23:20.078Z,24.23
2022-11-23T08:25:48.520Z,22.20
2022-11-23T08:28:16.795Z,24.30
2022-11-23T08:30:45.100Z,24.07
2022-11-23T08:33:14.897Z,25.17
2022-11-23T08:35:43.842Z,27.80
2022-11-23T08:38:12.376Z,22.00
2022-11-23T08:40:40.565Z,22.27
2022-11-23T08:43:08.763Z,21.33
2022-11-23T08:45:37.077Z,22.57
2022-11-23T08:48:05.998Z,20.97
2022-11-23T08:50:37.060Z,21.60
2022-11-23T08:53:05.614Z,24.40
2022-11-23T08:55:33.767Z,23.00
2022-11-23T08:58:01.924Z,20.27
2022-11-23T09:00:30.278Z,25.47
2022-11-23T09:02:58.864Z,23.83
2022-11-23T09:05:27.571Z,21.40
2022-11-23T09:07:57.165Z,23.07
2022-11-23T09:10:25.263Z,20.73
2022-11-23T09:12:53.656Z,19.73
2022-11-23T09:15:22.458Z,18.77
2022-11-23T09:17:50.653Z,16.67
2022-11-23T09:20:19.096Z,20.63
2022-11-23T09:22:52.205Z,23.30
2022-11-23T09:25:21.870Z,19.97
2022-11-23T09:27:50.745Z,21.53
2022-11-23T09:30:19.177Z,17.30
2022-11-23T09:32:47.295Z,20.17
2022-11-23T09:35:15.564Z,20.93
2022-11-23T09:37:43.672Z,17.20
2022-11-23T09:40:17.142Z,17.00
2022-11-23T09:42:58.475Z,16.37
2022-11-23T09:45:35.701Z,18.47
2022-11-23T09:48:35.793Z,18.50
2022-11-23T09:51:12.818Z,18.43
2022-11-23T09:53:46.631Z,18.33
2022-11-23T09:56:22.395Z,15.50
2022-11-23T09:58:56.224Z,19.63
2022-11-23T10:01:24.853Z,17.57
2022-11-23T10:03:53.032Z,16.10
2022-11-23T10:06:25.336Z,14.03
2022-11-23T10:09:13.675Z,16.80
2022-11-23T10:12:13.947Z,16.33
2022-11-23T10:14:56.137Z,15.40
2022-11-23T10:17:31.901Z,14.47
2022-11-23T10:20:19.122Z,14.43
2022-11-23T10:22:55.864Z,13.23
2022-11-23T10:25:25.585Z,15.73
2022-11-23T10:28:02.955Z,14.13
2022-11-23T10:30:32.609Z,14.67
2022-11-23T10:33:06.379Z,14.33
2022-11-23T10:35:38.205Z,14.83
2022-11-23T10:38:18.812Z,14.13
2022-11-23T10:40:56.420Z,18.10
2022-11-23T10:43:27.122Z,17.00
2022-11-23T10:46:24.416Z,14.13
2022-11-23T10:48:53.381Z,16.07
2022-11-23T10:51:29.095Z,14.47
2022-11-23T10:54:04.980Z,14.80
2022-11-23T10:56:35.106Z,14.90
2022-11-23T10:59:03.242Z,13.97
2022-11-23T11:01:32.826Z,12.33
2022-11-23T11:04:04.909Z,14.43
2022-11-23T11:06:36.079Z,13.80
2022-11-23T11:09:10.832Z,19.70
2022-11-23T11:11:47.718Z,14.57
2022-11-23T11:14:18.171Z,14.40
2022-11-23T11:16:51.873Z,13.83
2022-11-23T11:19:27.886Z,17.00
2022-11-23T11:21:56.917Z,15.80
2022-11-23T11:24:32.492Z,14.30
2022-11-23T11:27:03.380Z,14.73
2022-11-23T11:29:39.122Z,12.97
2022-11-23T11:32:14.992Z,17.83
2022-11-23T11:34:48.809Z,14.43
2022-11-23T11:37:25.816Z,12.33
2022-11-23T11:39:57.777Z,16.97
2022-11-23T11:42:35.254Z,21.13
2022-11-23T11:45:07.479Z,14.03
2022-11-23T11:47:41.250Z,16.40
2022-11-23T11:50:21.150Z,15.47
2022-11-23T11:52:52.632Z,15.40
2022-11-23T11:55:24.942Z,14.30
2022-11-23T11:57:56.996Z,14.17
2022-11-23T12:00:25.362Z,14.07
2022-11-23T12:03:05.410Z,13.40
2022-11-23T12:05:41.180Z,16.17
2022-11-23T12:08:14.641Z,14.33
2022-11-23T12:10:48.133Z,16.20
2022-11-23T12:13:18.457Z,14.30
2022-11-23T12:15:50.512Z,17.57
2022-11-23T12:18:52.471Z,13.90
2022-11-23T12:21:48.999Z,11.73
2022-11-23T12:24:29.756Z,14.77
2022-11-23T12:27:04.225Z,15.43
2022-11-23T12:29:54.434Z,16.57
2022-11-23T12:32:31.581Z,14.37
2022-11-23T12:35:30.965Z,14.30
2022-11-23T12:38:12.252Z,17.40
2022-11-23T12:41:15.430Z,14.53
2022-11-23T12:43:55.825Z,14.03
2022-11-23T12:46:31.522Z,14.97
2022-11-23T12:49:11.467Z,17.67
2022-11-23T12:51:52.020Z,14.77
2022-11-23T12:54:35.182Z,16.80
2022-11-23T12:57:13.884Z,17.20
2022-11-23T12:59:47.769Z,14.10
2022-11-23T13:02:37.795Z,12.73
2022-11-23T13:05:26.515Z,13.30
2022-11-23T13:08:12.544Z,16.20
2022-11-23T13:10:54.381Z,14.77
2022-11-23T13:13:34.951Z,15.83
2022-11-23T13:16:35.358Z,12.70
2022-11-23T13:19:23.219Z,18.17
2022-11-23T13:21:51.661Z,12.07
2022-11-23T13:24:29.025Z,12.40
2022-11-23T13:27:34.403Z,13.53
2022-11-23T13:30:11.082Z,14.23
2022-11-23T13:32:54.411Z,14.73
2022-11-23T13:35:57.188Z,11.83
2022-11-23T13:38:40.047Z,14.27
2022-11-23T13:41:50.679Z,12.50
2022-11-23T13:44:23.430Z,14.30
2022-11-23T13:47:03.366Z,14.23
2022-11-23T13:49:35.236Z,16.20
2022-11-23T13:52:22.587Z,15.17
2022-11-23T13:55:08.630Z,13.50
2022-11-23T13:57:38.374Z,13.37
2022-11-23T14:00:43.940Z,13.40
2022-11-23T14:03:48.917Z,18.70
2022-11-23T14:06:37.020Z,14.70
2022-11-23T14:09:11.422Z,13.73
2022-11-23T14:11:51.688Z,11.37
2022-11-23T14:14:24.313Z,11.23
2022-11-23T14:17:15.931Z,11.57
2022-11-23T14:20:03.130Z,12.63
2022-11-23T14:22:46.455Z,15.30
2022-11-23T14:25:27.898Z,12.27
2022-11-23T14:28:04.798Z,14.03
2022-11-23T14:31:00.123Z,13.00
2022-11-23T14:33:36.080Z,19.47
2022-11-23T14:36:25.638Z,15.47
2022-11-23T14:39:05.644Z,12.87
2022-11-23T14:41:36.257Z,16.80
2022-11-23T14:44:06.389Z,18.23
2022-11-23T14:46:34.521Z,15.97
2022-11-23T14:49:07.371Z,20.77
2022-11-23T14:51:40.623Z,21.53
2022-11-23T14:54:11.208Z,34.23
2022-11-23T14:56:43.819Z,30.53
2022-11-23T14:59:22.238Z,21.80
2022-11-23T15:01:53.411Z,14.87
2022-11-23T15:04:27.205Z,14.30
2022-11-23T15:07:01.510Z,15.50
2022-11-23T15:09:42.384Z,15.63
2022-11-23T15:12:22.890Z,17.83
2022-11-23T15:14:51.712Z,19.37
2022-11-23T15:17:21.225Z,15.07
2022-11-23T15:19:57.108Z,17.33
2022-11-23T15:22:28.215Z,17.60
2022-11-23T15:25:06.487Z,18.13
2022-11-23T15:27:34.591Z,23.10
2022-11-23T15:30:03.003Z,18.37
2022-11-23T15:32:34.666Z,16.67
2022-11-23T15:35:07.791Z,17.93
2022-11-23T15:37:44.867Z,16.17
2022-11-23T15:40:15.528Z,17.77
2022-11-23T15:42:44.532Z,17.47
2022-11-23T15:45:35.017Z,16.33
2022-11-23T15:48:04.920Z,17.60
2022-11-23T15:50:34.403Z,16.27
2022-11-23T15:53:04.256Z,18.50
2022-11-23T15:55:32.464Z,19.83
2022-11-23T15:58:03.615Z,17.87
2022-11-23T16:00:32.268Z,15.67
2022-11-23T16:03:21.971Z,20.70
2022-11-23T16:06:17.272Z,16.50
2022-11-23T16:08:47.121Z,17.83
2022-11-23T16:11:30.816Z,16.87
2022-11-23T16:14:13.254Z,15.53
2022-11-23T16:16:45.859Z,18.00
2022-11-23T16:19:26.692Z,18.17
2022-11-23T16:22:02.271Z,18.00
2022-11-23T16:24:34.469Z,17.27
2022-11-23T16:27:03.293Z,22.00
2022-11-23T16:29:36.761Z,20.87
2022-11-23T16:32:07.253Z,19.60
2022-11-23T16:34:35.798Z,22.03
2022-11-23T16:37:05.011Z,21.67
2022-11-23T16:39:34.943Z,20.60
2022-11-23T16:42:03.714Z,21.93
2022-11-23T16:44:35.088Z,20.20
2022-11-23T16:47:24.868Z,20.97
2022-11-23T16:49:54.120Z,21.00
2022-11-23T16:52:23.038Z,22.60
2022-11-23T16:54:53.585Z,22.33
2022-11-23T16:57:28.199Z,24.33
2022-11-23T16:59:56.963Z,23.23
2022-11-23T17:02:25.216Z,23.97
2022-11-23T17:04:53.541Z,21.03
2022-11-23T17:07:21.791Z,21.20
2022-11-23T17:09:49.981Z,22.93
2022-11-23T17:12:21.378Z,25.27
2022-11-23T17:14:50.599Z,27.57
2022-11-23T17:17:22.007Z,24.70
2022-11-23T17:19:51.055Z,27.43
2022-11-23T17:22:20.155Z,25.27
2022-11-23T17:24:49.138Z,25.27
2022-11-23T17:27:21.696Z,24.70
2022-11-23T17:29:55.174Z,29.37
2022-11-23T17:32:23.326Z,25.00
2022-11-23T17:34:51.474Z,22.87
2022-11-23T17:37:21.987Z,23.50
2022-11-23T17:39:50.930Z,24.80
2022-11-23T17:42:20.609Z,26.20
2022-11-23T17:44:48.775Z,27.37
2022-11-23T17:47:22.183Z,24.70
2022-11-23T17:49:50.422Z,31.37
2022-11-23T17:52:18.729Z,25.93
2022-11-23T17:54:49.569Z,29.67
2022-11-23T17:57:23.006Z,26.40
2022-11-23T17:59:51.534Z,30.97
2022-11-23T18:02:20.001Z,28.07
2022-11-23T18:04:48.530Z,27.33
2022-11-23T18:07:18.575Z,27.37
2022-11-23T18:09:46.853Z,31.40
2022-11-23T18:12:15.439Z,30.13
2022-11-23T18:14:44.922Z,29.53
2022-11-23T18:17:13.019Z,34.20
2022-11-23T18:19:41.510Z,36.20
2022-11-23T18:22:11.131Z,33.17
2022-11-23T18:24:39.523Z,30.47
2022-11-23T18:27:08.164Z,32.63
2022-11-23T18:29:37.751Z,31.03
2022-11-23T18:32:08.335Z,28.60
2022-11-23T18:34:36.529Z,31.90
2022-11-23T18:37:04.702Z,27.13
2022-11-23T18:39:33.054Z,33.03
2022-11-23T18:42:05.554Z,31.57
2022-11-23T18:44:34.395Z,35.47
2022-11-23T18:47:02.533Z,30.63
2022-11-23T18:49:32.399Z,33.50
2022-11-23T18:52:00.841Z,35.57
2022-11-23T18:54:28.959Z,31.10
2022-11-23T18:56:57.095Z,31.80
2022-11-23T19:02:13.618Z,32.23
2022-11-23T19:04:43.167Z,31.73
2022-11-23T19:07:11.420Z,30.60
2022-11-23T19:09:39.813Z,35.63
2022-11-23T19:12:08.836Z,30.60
2022-11-23T19:14:37.065Z,29.63
2022-11-23T19:17:05.229Z,33.73
2022-11-23T19:19:33.673Z,32.27
2022-11-23T19:22:03.243Z,30.30
2022-11-23T19:24:31.595Z,37.10
2022-11-23T19:26:59.771Z,34.23
2022-11-23T19:29:28.566Z,37.40
2022-11-23T19:31:56.703Z,29.67
2022-11-23T19:34:24.872Z,32.47
2022-11-23T19:36:53.054Z,27.90
2022-11-23T19:39:22.559Z,30.77
2022-11-23T19:41:50.687Z,36.83
2022-11-23T19:44:18.876Z,30.20
2022-11-23T19:46:47.020Z,36.07
2022-11-23T19:49:15.221Z,35.27
2022-11-23T19:51:43.425Z,35.93
2022-11-23T19:54:11.498Z,33.00
2022-11-23T19:56:41.036Z,33.00
2022-11-23T19:59:09.567Z,35.00
2022-11-23T20:01:38.713Z,31.00
2022-11-23T20:04:09.662Z,39.70
2022-11-23T20:06:39.297Z,36.37
2022-11-23T20:09:09.340Z,34.10
2022-11-23T20:11:41.022Z,29.97
2022-11-23T20:14:11.604Z,31.43
2022-11-23T20:16:40.307Z,29.80
2022-11-23T20:19:09.881Z,32.63
2022-11-23T20:21:39.266Z,33.07
2022-11-23T20:24:10.777Z,33.10
2022-11-23T20:26:41.530Z,32.83
2022-11-23T20:29:10.675Z,33.97
2022-11-23T20:31:39.396Z,33.63
2022-11-23T20:34:09.963Z,34.03
2022-11-23T20:36:40.512Z,35.60
2022-11-23T20:39:16.042Z,36.70
2022-11-23T20:41:45.889Z,35.33
2022-11-23T20:44:15.227Z,38.53
2022-11-23T20:49:35.145Z,32.10
2022-11-23T20:52:03.622Z,39.07
2022-11-23T20:54:32.333Z,34.93
2022-11-23T20:57:02.171Z,34.53
2022-11-23T20:59:32.551Z,36.70
2022-11-23T21:02:01.014Z,39.60
2022-11-23T21:04:29.303Z,37.73
2022-11-23T21:06:57.395Z,37.03
2022-11-23T21:09:25.487Z,40.47
2022-11-23T21:12:11.285Z,39.03
2022-11-23T21:14:40.926Z,39.40
2022-11-23T21:17:09.656Z,43.57
2022-11-23T21:19:39.163Z,38.70
2022-11-23T21:22:10.002Z,40.73
2022-11-23T21:24:38.390Z,38.93
2022-11-23T21:27:08.003Z,39.53
2022-11-23T21:29:36.154Z,38.80
2022-11-23T21:32:06.524Z,40.90
2022-11-23T21:34:34.939Z,43.10
2022-11-23T21:37:03.247Z,41.03
2022-11-23T21:39:32.992Z,41.80
2022-11-23T21:42:04.409Z,42.73
2022-11-23T21:44:32.974Z,41.30
2022-11-23T21:47:01.357Z,44.80
2022-11-23T21:49:30.838Z,48.90
2022-11-23T21:51:58.955Z,49.00
2022-11-23T21:54:27.077Z,44.67
2022-11-23T21:56:55.573Z,39.40
2022-11-23T21:59:24.697Z,41.57
2022-11-23T22:01:57.101Z,43.37
2022-11-23T22:04:25.709Z,38.30
2022-11-23T22:06:55.476Z,46.13
2022-11-23T22:09:23.839Z,49.63
2022-11-23T22:11:54.469Z,53.20
2022-11-23T22:14:22.809Z,47.67
2022-11-23T22:16:53.642Z,50.33
2022-11-23T22:19:21.951Z,55.37
2022-11-23T22:21:50.276Z,47.93
2022-11-23T22:24:21.167Z,46.63
2022-11-23T22:26:49.874Z,46.87
2022-11-23T22:29:18.213Z,49.03
2022-11-23T22:31:46.694Z,48.17
2022-11-23T22:34:15.848Z,49.67
2022-11-23T22:36:44.430Z,49.83
2022-11-23T22:39:12.806Z,49.60
2022-11-23T22:41:42.823Z,51.53
2022-11-23T22:44:11.739Z,46.17
2022-11-23T22:46:40.903Z,51.20
2022-11-23T22:49:09.454Z,46.50
2022-11-23T22:51:37.850Z,47.03
2022-11-23T22:54:06.418Z,54.13
2022-11-23T22:56:34.959Z,41.47
2022-11-23T22:59:05.684Z,49.47
2022-11-23T23:01:34.202Z,47.20
2022-11-23T23:04:04.389Z,49.07
2022-11-23T23:06:35.025Z,55.87
2022-11-23T23:09:05.132Z,53.30
2022-11-23T23:11:34.300Z,47.80
2022-11-23T23:14:04.075Z,52.00
2022-11-23T23:16:32.589Z,50.53
2022-11-23T23:19:03.708Z,40.37
2022-11-23T23:21:32.177Z,59.97
2022-11-23T23:24:02.138Z,62.30
2022-11-23T23:26:33.382Z,53.67
2022-11-23T23:29:02.049Z,42.87
2022-11-23T23:31:31.733Z,55.30
2022-11-23T23:34:01.076Z,52.80
2022-11-23T23:36:29.604Z,50.93
2022-11-23T23:38:58.576Z,55.13
2022-11-23T23:41:26.911Z,50.20
2022-11-23T23:43:55.260Z,49.03
2022-11-23T23:46:23.873Z,59.63
2022-11-23T23:48:56.383Z,56.10
2022-11-23T23:51:25.509Z,57.63
2022-11-23T23:53:54.082Z,53.40
2022-11-23T23:56:24.073Z,59.60
2022-11-23T23:58:52.725Z,56.60
